Time;durP1;ratioP1;P1;durP2;ratioP2;P2;SDS_P1;SDS_P2;PMS_P1;PMS_P2;Temp;Humidity;BMP_temperature;BMP_pressure;BME280_temperature;BME280_humidity;BME280_pressure;Samples;Min_cycle;Max_cycle;Signal;HPM_P1;HPM_P2
2023/01/22 00:00:32;;;;;;;24.60;10.63;;;;;;;;;;4976180;28;20128;-74
2023/01/22 00:02:59;;;;;;;20.13;11.02;;;;;;;;;;4975082;28;20082;-74
2023/01/22 00:05:26;;;;;;;25.25;11.80;;;;;;;;;;4974597;28;20594;-74
2023/01/22 00:07:54;;;;;;;26.92;12.10;;;;;;;;;;4991832;28;20141;-74
2023/01/22 00:10:20;;;;;;;26.33;12.07;;;;;;;;;;4982301;28;20106;-74
2023/01/22 00:12:47;;;;;;;26.63;11.38;;;;;;;;;;4964911;28;20046;-74
2023/01/22 00:15:14;;;;;;;25.83;10.93;;;;;;;;;;4987396;28;20130;-74
2023/01/22 00:17:40;;;;;;;27.85;11.38;;;;;;;;;;4979475;28;20134;-74
2023/01/22 00:20:08;;;;;;;21.88;11.57;;;;;;;;;;4973931;28;20047;-74
2023/01/22 00:22:35;;;;;;;25.80;11.40;;;;;;;;;;4984355;28;20134;-75
2023/01/22 00:25:04;;;;;;;28.00;12.55;;;;;;;;;;4992894;28;20055;-75
2023/01/22 00:27:31;;;;;;;23.30;11.32;;;;;;;;;;4982027;28;20077;-75
2023/01/22 00:29:58;;;;;;;21.50;9.85;;;;;;;;;;4973730;28;20058;-75
2023/01/22 00:32:24;;;;;;;23.17;10.57;;;;;;;;;;4986876;28;20074;-74
2023/01/22 00:34:53;;;;;;;22.42;10.75;;;;;;;;;;4993453;28;20056;-74
2023/01/22 00:37:20;;;;;;;23.80;11.25;;;;;;;;;;4982422;28;20054;-74
2023/01/22 00:39:47;;;;;;;22.50;10.45;;;;;;;;;;4982542;28;20121;-75
2023/01/22 00:42:15;;;;;;;24.08;11.25;;;;;;;;;;4983335;28;20410;-73
2023/01/22 00:44:41;;;;;;;25.55;12.55;;;;;;;;;;4974455;28;20565;-74
2023/01/22 00:47:08;;;;;;;27.15;12.25;;;;;;;;;;4973227;28;20502;-74
2023/01/22 00:49:35;;;;;;;27.08;11.60;;;;;;;;;;4975377;28;20416;-74
2023/01/22 00:52:01;;;;;;;22.98;10.20;;;;;;;;;;4988993;28;20042;-73
2023/01/22 00:54:28;;;;;;;22.15;10.35;;;;;;;;;;4973266;28;20570;-76
2023/01/22 00:56:55;;;;;;;23.80;11.00;;;;;;;;;;4990516;28;20422;-73
2023/01/22 00:59:23;;;;;;;25.15;11.07;;;;;;;;;;4990433;28;20038;-74
2023/01/22 01:01:49;;;;;;;23.65;10.27;;;;;;;;;;4974120;28;20051;-74
2023/01/22 01:04:16;;;;;;;26.75;11.60;;;;;;;;;;4989847;28;20153;-74
2023/01/22 01:06:43;;;;;;;27.73;12.25;;;;;;;;;;4973445;28;20235;-74
2023/01/22 01:09:09;;;;;;;25.20;12.57;;;;;;;;;;4976077;28;20130;-74
2023/01/22 01:11:36;;;;;;;24.33;10.98;;;;;;;;;;4978335;28;20129;-74
2023/01/22 01:14:04;;;;;;;24.38;11.10;;;;;;;;;;4992321;28;20181;-74
2023/01/22 01:16:32;;;;;;;22.98;10.82;;;;;;;;;;4994278;28;20133;-75
2023/01/22 01:18:59;;;;;;;24.90;12.00;;;;;;;;;;4993940;28;20493;-75
2023/01/22 01:21:26;;;;;;;25.45;11.73;;;;;;;;;;4974520;28;20097;-74
2023/01/22 01:23:54;;;;;;;22.45;11.05;;;;;;;;;;4972923;28;20057;-75
2023/01/22 01:26:21;;;;;;;26.92;11.45;;;;;;;;;;4982676;28;20130;-75
2023/01/22 01:28:51;;;;;;;22.70;10.90;;;;;;;;;;4982897;28;20051;-75
2023/01/22 01:31:18;;;;;;;25.17;12.00;;;;;;;;;;4974842;28;20043;-75
2023/01/22 01:33:47;;;;;;;24.23;12.05;;;;;;;;;;4972625;28;20363;-75
2023/01/22 01:36:15;;;;;;;22.48;10.05;;;;;;;;;;4980130;28;20050;-74
2023/01/22 01:38:43;;;;;;;26.65;11.75;;;;;;;;;;4991797;28;20152;-74
2023/01/22 01:41:11;;;;;;;22.23;10.45;;;;;;;;;;4982734;28;20042;-74
2023/01/22 01:43:38;;;;;;;20.83;10.75;;;;;;;;;;4988818;28;20053;-74
2023/01/22 01:46:15;;;;;;;24.33;10.73;;;;;;;;;;4988783;28;20081;-74
2023/01/22 01:48:45;;;;;;;24.00;10.60;;;;;;;;;;4987801;28;20046;-75
2023/01/22 01:51:17;;;;;;;25.58;12.32;;;;;;;;;;4991339;28;20046;-75
2023/01/22 01:53:45;;;;;;;26.08;11.95;;;;;;;;;;4987640;28;20078;-74
2023/01/22 01:56:15;;;;;;;27.20;12.07;;;;;;;;;;4976916;28;20042;-74
2023/01/22 01:58:43;;;;;;;24.15;11.82;;;;;;;;;;4988699;28;20058;-74
2023/01/22 02:01:13;;;;;;;25.25;11.57;;;;;;;;;;4984593;28;20050;-74
2023/01/22 02:03:41;;;;;;;24.25;11.65;;;;;;;;;;4977325;28;20395;-74
2023/01/22 02:06:10;;;;;;;22.95;10.85;;;;;;;;;;4978992;28;20377;-74
2023/01/22 02:08:39;;;;;;;26.67;12.20;;;;;;;;;;4976133;28;20137;-74
2023/01/22 02:11:06;;;;;;;26.85;11.65;;;;;;;;;;4978028;28;20429;-74
2023/01/22 02:13:35;;;;;;;24.05;12.13;;;;;;;;;;4976853;28;20081;-74
2023/01/22 02:16:02;;;;;;;26.45;12.30;;;;;;;;;;4975804;28;20043;-74
2023/01/22 02:18:29;;;;;;;25.85;11.68;;;;;;;;;;4976981;28;20042;-74
2023/01/22 02:20:59;;;;;;;25.45;11.43;;;;;;;;;;4983628;28;20106;-74
2023/01/22 02:23:26;;;;;;;23.42;12.13;;;;;;;;;;4983218;28;20111;-75
2023/01/22 02:25:52;;;;;;;25.63;11.30;;;;;;;;;;4999485;28;20110;-73
2023/01/22 02:28:19;;;;;;;26.30;12.85;;;;;;;;;;4997301;28;20116;-73
2023/01/22 02:30:46;;;;;;;26.92;12.40;;;;;;;;;;4987057;28;20134;-73
2023/01/22 02:33:13;;;;;;;24.02;11.50;;;;;;;;;;4989577;28;20548;-74
2023/01/22 02:35:39;;;;;;;24.88;12.15;;;;;;;;;;4994296;28;20066;-73
2023/01/22 02:38:07;;;;;;;29.95;12.77;;;;;;;;;;4995151;28;20082;-75
2023/01/22 02:40:34;;;;;;;27.98;12.32;;;;;;;;;;4992130;28;20529;-75
2023/01/22 02:43:01;;;;;;;26.85;12.55;;;;;;;;;;4994971;28;20042;-75
2023/01/22 02:45:27;;;;;;;29.65;13.45;;;;;;;;;;4985054;28;20063;-73
2023/01/22 02:47:54;;;;;;;23.52;11.70;;;;;;;;;;4975701;28;20051;-75
2023/01/22 02:50:21;;;;;;;27.23;12.57;;;;;;;;;;4977208;28;20082;-75
2023/01/22 02:52:47;;;;;;;28.77;12.50;;;;;;;;;;4973903;28;20082;-76
2023/01/22 02:55:15;;;;;;;28.20;12.93;;;;;;;;;;4985505;28;20089;-75
2023/01/22 02:57:42;;;;;;;29.70;13.25;;;;;;;;;;4992148;28;20459;-75
2023/01/22 03:00:10;;;;;;;29.15;12.90;;;;;;;;;;4975398;28;20130;-75
2023/01/22 03:02:37;;;;;;;28.05;13.15;;;;;;;;;;4992780;28;20129;-75
2023/01/22 03:05:04;;;;;;;32.65;13.35;;;;;;;;;;4979085;28;20558;-75
2023/01/22 03:07:40;;;;;;;27.85;12.40;;;;;;;;;;4975405;28;20106;-74
2023/01/22 03:10:10;;;;;;;28.88;13.88;;;;;;;;;;4986923;28;20069;-75
2023/01/22 03:23:35;;;;;;;26.40;12.20;;;;;;;;;;4955539;29;20111;-75
2023/01/22 03:26:02;;;;;;;26.55;12.10;;;;;;;;;;4956237;28;20126;-74
2023/01/22 03:28:30;;;;;;;23.85;10.88;;;;;;;;;;4979330;28;20055;-74
2023/01/22 03:30:57;;;;;;;24.70;12.40;;;;;;;;;;4993447;28;20050;-74
2023/01/22 03:33:24;;;;;;;26.25;11.25;;;;;;;;;;4993433;28;20051;-74
2023/01/22 03:35:50;;;;;;;25.95;13.10;;;;;;;;;;4994173;28;20485;-74
2023/01/22 03:38:17;;;;;;;23.55;12.00;;;;;;;;;;4991563;28;20129;-74
2023/01/22 03:40:43;;;;;;;28.60;12.52;;;;;;;;;;4977588;28;20054;-73
2023/01/22 03:43:10;;;;;;;26.55;11.75;;;;;;;;;;4989633;28;20138;-74
2023/01/22 03:45:38;;;;;;;25.88;12.45;;;;;;;;;;4987430;28;20086;-76
2023/01/22 03:48:05;;;;;;;26.73;11.63;;;;;;;;;;4975846;28;20050;-74
2023/01/22 03:50:32;;;;;;;27.60;12.10;;;;;;;;;;4971769;28;20146;-74
2023/01/22 03:52:58;;;;;;;27.10;13.20;;;;;;;;;;4991918;28;20081;-74
2023/01/22 03:55:25;;;;;;;26.70;11.88;;;;;;;;;;4993995;28;20054;-75
2023/01/22 03:57:51;;;;;;;24.05;11.05;;;;;;;;;;4989128;28;20463;-75
2023/01/22 04:00:19;;;;;;;26.25;11.93;;;;;;;;;;4982438;28;20137;-74
2023/01/22 04:02:48;;;;;;;27.15;12.00;;;;;;;;;;4988825;28;20491;-76
2023/01/22 04:05:14;;;;;;;24.50;12.05;;;;;;;;;;4974042;28;20102;-75
2023/01/22 04:07:41;;;;;;;26.95;12.65;;;;;;;;;;4990728;28;20483;-75
2023/01/22 04:10:09;;;;;;;25.70;12.32;;;;;;;;;;4981374;28;20133;-75
2023/01/22 04:12:36;;;;;;;29.55;12.75;;;;;;;;;;4974139;28;20050;-75
2023/01/22 04:15:02;;;;;;;25.90;11.35;;;;;;;;;;4980131;28;20050;-75
2023/01/22 04:17:29;;;;;;;25.83;11.50;;;;;;;;;;4993296;28;20050;-74
2023/01/22 04:19:57;;;;;;;25.33;12.85;;;;;;;;;;4989185;28;20042;-75
2023/01/22 04:22:24;;;;;;;26.50;12.07;;;;;;;;;;4973613;28;20485;-76
2023/01/22 04:24:50;;;;;;;25.42;11.98;;;;;;;;;;4974890;28;20133;-75
2023/01/22 04:27:17;;;;;;;28.60;11.90;;;;;;;;;;4992568;28;20046;-74
2023/01/22 04:29:43;;;;;;;26.10;11.95;;;;;;;;;;4989560;28;20097;-74
2023/01/22 04:32:10;;;;;;;24.77;11.35;;;;;;;;;;4974578;28;20051;-74
2023/01/22 04:34:37;;;;;;;26.65;12.38;;;;;;;;;;4974053;28;20051;-74
2023/01/22 04:37:05;;;;;;;32.78;12.25;;;;;;;;;;4993012;28;20528;-74
2023/01/22 04:39:31;;;;;;;27.05;12.02;;;;;;;;;;4986413;28;20475;-73
2023/01/22 04:41:58;;;;;;;23.50;10.75;;;;;;;;;;4990876;28;20153;-75
2023/01/22 04:44:25;;;;;;;23.65;11.70;;;;;;;;;;4992830;28;20054;-75
2023/01/22 04:46:51;;;;;;;28.13;11.98;;;;;;;;;;4974821;28;20049;-75
2023/01/22 04:49:18;;;;;;;27.10;12.10;;;;;;;;;;4974604;28;20050;-75
2023/01/22 04:51:45;;;;;;;26.00;12.10;;;;;;;;;;4977919;28;21507;-74
2023/01/22 04:54:13;;;;;;;24.27;10.93;;;;;;;;;;4973776;28;20137;-75
2023/01/22 04:56:39;;;;;;;25.30;11.35;;;;;;;;;;4988118;28;20047;-75
2023/01/22 04:59:06;;;;;;;27.80;12.80;;;;;;;;;;4992730;28;20133;-75
2023/01/22 05:01:33;;;;;;;24.90;11.63;;;;;;;;;;4987683;28;20593;-73
2023/01/22 05:04:01;;;;;;;28.15;13.05;;;;;;;;;;4991539;28;20089;-74
2023/01/22 05:06:27;;;;;;;26.83;12.38;;;;;;;;;;4980304;28;20517;-75
2023/01/22 05:08:54;;;;;;;25.90;12.18;;;;;;;;;;4991538;28;20130;-75
2023/01/22 05:11:22;;;;;;;27.77;12.23;;;;;;;;;;4976382;28;20051;-74
2023/01/22 05:13:49;;;;;;;27.85;14.13;;;;;;;;;;4979717;28;20133;-74
2023/01/22 05:16:16;;;;;;;28.42;12.57;;;;;;;;;;4992230;28;20445;-76
2023/01/22 05:18:42;;;;;;;30.67;13.15;;;;;;;;;;4985424;28;20494;-76
2023/01/22 05:21:09;;;;;;;26.88;12.95;;;;;;;;;;4980620;28;20133;-73
2023/01/22 05:23:36;;;;;;;23.35;11.45;;;;;;;;;;4988112;28;20077;-74
2023/01/22 05:26:02;;;;;;;24.98;13.05;;;;;;;;;;4973962;28;20126;-75
2023/01/22 05:28:30;;;;;;;29.90;14.15;;;;;;;;;;4973430;28;20135;-75
2023/01/22 05:30:57;;;;;;;25.40;12.00;;;;;;;;;;4973498;28;20129;-75
2023/01/22 05:33:23;;;;;;;27.60;12.75;;;;;;;;;;4975694;28;20515;-74
2023/01/22 05:35:56;;;;;;;28.13;12.30;;;;;;;;;;4974275;28;20089;-73
2023/01/22 05:38:22;;;;;;;28.15;13.00;;;;;;;;;;4975928;28;20126;-75
2023/01/22 05:40:49;;;;;;;27.42;12.57;;;;;;;;;;4986592;28;20497;-74
2023/01/22 05:43:15;;;;;;;24.67;12.10;;;;;;;;;;4973665;28;20086;-74
2023/01/22 05:45:43;;;;;;;27.95;13.45;;;;;;;;;;4976752;28;20071;-74
2023/01/22 05:48:10;;;;;;;28.75;12.80;;;;;;;;;;4972800;28;20090;-72
2023/01/22 05:50:37;;;;;;;29.27;12.27;;;;;;;;;;4973659;28;20042;-75
2023/01/22 05:53:04;;;;;;;26.10;12.35;;;;;;;;;;4972689;28;20481;-74
2023/01/22 05:55:31;;;;;;;27.75;13.25;;;;;;;;;;4978681;28;20590;-75
2023/01/22 05:57:58;;;;;;;25.27;11.95;;;;;;;;;;4972884;28;20498;-75
2023/01/22 06:00:25;;;;;;;26.05;12.40;;;;;;;;;;4989190;28;20046;-75
2023/01/22 06:02:56;;;;;;;26.33;12.20;;;;;;;;;;4992605;28;20080;-76
2023/01/22 06:05:23;;;;;;;25.38;12.45;;;;;;;;;;4976565;28;20053;-75
2023/01/22 06:07:50;;;;;;;29.58;12.13;;;;;;;;;;4973303;28;20059;-75
2023/01/22 06:10:17;;;;;;;25.40;11.95;;;;;;;;;;4973110;28;20593;-75
2023/01/22 06:12:44;;;;;;;26.48;12.85;;;;;;;;;;4972509;28;20051;-75
2023/01/22 06:15:11;;;;;;;26.92;12.55;;;;;;;;;;4984617;28;20075;-75
2023/01/22 06:17:38;;;;;;;30.70;13.25;;;;;;;;;;4990316;28;20405;-74
2023/01/22 06:20:08;;;;;;;28.67;12.05;;;;;;;;;;4983442;28;20043;-75
2023/01/22 06:22:35;;;;;;;29.25;13.57;;;;;;;;;;4973843;28;20129;-75
2023/01/22 06:25:02;;;;;;;27.88;12.63;;;;;;;;;;4973133;28;20478;-75
2023/01/22 06:27:29;;;;;;;26.60;12.32;;;;;;;;;;4989313;28;20049;-75
2023/01/22 06:29:55;;;;;;;26.27;11.85;;;;;;;;;;4993680;28;20042;-72
2023/01/22 06:32:22;;;;;;;30.73;13.65;;;;;;;;;;4976791;28;20050;-75
2023/01/22 06:34:49;;;;;;;30.98;14.57;;;;;;;;;;4977217;28;20082;-76
2023/01/22 06:37:17;;;;;;;25.90;11.52;;;;;;;;;;4978579;28;20070;-76
2023/01/22 06:39:43;;;;;;;26.20;11.57;;;;;;;;;;4985096;28;20046;-76
2023/01/22 06:42:10;;;;;;;28.08;13.00;;;;;;;;;;4977258;28;20129;-75
2023/01/22 06:44:37;;;;;;;29.40;13.32;;;;;;;;;;4994889;28;20073;-75
2023/01/22 06:47:03;;;;;;;27.55;12.15;;;;;;;;;;4986232;28;20525;-76
2023/01/22 06:49:30;;;;;;;27.90;11.95;;;;;;;;;;4975941;28;20482;-74
2023/01/22 06:51:57;;;;;;;24.55;11.48;;;;;;;;;;4982475;28;20593;-75
2023/01/22 06:54:25;;;;;;;26.48;12.20;;;;;;;;;;4995599;28;20134;-75
2023/01/22 06:56:52;;;;;;;25.50;14.13;;;;;;;;;;4989407;28;20077;-76
2023/01/22 06:59:18;;;;;;;29.73;12.07;;;;;;;;;;4981516;28;20108;-75
2023/01/22 07:01:45;;;;;;;24.52;11.00;;;;;;;;;;4995378;28;20052;-75
2023/01/22 07:04:11;;;;;;;26.80;11.35;;;;;;;;;;4991489;28;20538;-74
2023/01/22 07:06:38;;;;;;;28.08;12.48;;;;;;;;;;4975401;28;20051;-75
2023/01/22 07:09:05;;;;;;;25.02;12.95;;;;;;;;;;4975085;28;20133;-73
2023/01/22 07:11:33;;;;;;;25.35;12.70;;;;;;;;;;4956654;29;20053;-74
2023/01/22 07:13:59;;;;;;;25.58;12.32;;;;;;;;;;4959144;28;20071;-73
2023/01/22 07:16:26;;;;;;;26.30;11.85;;;;;;;;;;4997247;28;20084;-74
2023/01/22 07:18:52;;;;;;;27.20;11.88;;;;;;;;;;4982953;28;20122;-74
2023/01/22 07:21:19;;;;;;;22.50;10.80;;;;;;;;;;4970810;28;20142;-74
2023/01/22 07:23:46;;;;;;;25.65;12.52;;;;;;;;;;4975206;28;20129;-77
2023/01/22 07:26:13;;;;;;;25.40;11.82;;;;;;;;;;4981898;28;20476;-75
2023/01/22 07:28:41;;;;;;;27.40;12.48;;;;;;;;;;4993845;28;20133;-74
2023/01/22 07:31:09;;;;;;;26.40;13.25;;;;;;;;;;4992572;28;20133;-74
2023/01/22 07:33:36;;;;;;;27.08;12.40;;;;;;;;;;4992690;28;20054;-75
2023/01/22 07:36:03;;;;;;;25.63;12.30;;;;;;;;;;4994200;28;20085;-74
2023/01/22 07:38:30;;;;;;;28.05;12.63;;;;;;;;;;4987525;28;20125;-74
2023/01/22 07:41:00;;;;;;;27.00;13.13;;;;;;;;;;4985445;28;20108;-75
2023/01/22 07:43:27;;;;;;;25.98;12.65;;;;;;;;;;4988451;28;20080;-76
2023/01/22 07:45:56;;;;;;;26.45;11.85;;;;;;;;;;4980052;28;20233;-74
2023/01/22 07:48:23;;;;;;;26.67;12.02;;;;;;;;;;4982180;28;20038;-75
2023/01/22 07:50:50;;;;;;;26.52;12.02;;;;;;;;;;4988282;28;20619;-76
2023/01/22 07:53:17;;;;;;;23.40;10.98;;;;;;;;;;4981513;28;20079;-75
2023/01/22 07:55:44;;;;;;;25.42;12.10;;;;;;;;;;4976477;28;20137;-74
2023/01/22 07:58:12;;;;;;;28.33;11.77;;;;;;;;;;4993017;28;20502;-74
2023/01/22 08:00:38;;;;;;;26.92;13.07;;;;;;;;;;5000755;28;20054;-74
2023/01/22 08:03:09;;;;;;;30.08;13.30;;;;;;;;;;4991838;28;20053;-72
2023/01/22 08:05:36;;;;;;;27.95;13.82;;;;;;;;;;4989133;28;20038;-74
2023/01/22 08:08:02;;;;;;;34.78;13.52;;;;;;;;;;4977904;28;20121;-75
2023/01/22 08:10:29;;;;;;;25.38;12.52;;;;;;;;;;4978813;28;20122;-75
2023/01/22 08:12:56;;;;;;;27.92;13.00;;;;;;;;;;4987901;28;20413;-75
2023/01/22 08:15:23;;;;;;;26.73;11.93;;;;;;;;;;4993048;28;20081;-73
2023/01/22 08:17:50;;;;;;;27.33;12.20;;;;;;;;;;4986623;28;20054;-74
2023/01/22 08:20:19;;;;;;;28.25;13.50;;;;;;;;;;4976238;28;20050;-74
2023/01/22 08:22:46;;;;;;;27.63;13.20;;;;;;;;;;4980205;28;20050;-74
2023/01/22 08:25:13;;;;;;;26.83;12.50;;;;;;;;;;4980890;28;20089;-73
2023/01/22 08:27:40;;;;;;;28.40;12.57;;;;;;;;;;4980125;28;20530;-74
2023/01/22 08:30:10;;;;;;;30.30;13.45;;;;;;;;;;4994925;28;20101;-74
2023/01/22 08:32:37;;;;;;;29.42;13.18;;;;;;;;;;4985722;28;20569;-74
2023/01/22 08:35:04;;;;;;;27.60;13.93;;;;;;;;;;4983376;28;20074;-75
2023/01/22 08:37:32;;;;;;;29.40;13.57;;;;;;;;;;4976915;28;20145;-76
2023/01/22 08:39:59;;;;;;;25.88;12.32;;;;;;;;;;4976415;28;20340;-74
2023/01/22 08:42:25;;;;;;;30.55;12.80;;;;;;;;;;4990929;28;20085;-72
2023/01/22 08:44:52;;;;;;;30.77;13.35;;;;;;;;;;4986476;28;20047;-73
2023/01/22 08:47:25;;;;;;;31.45;13.30;;;;;;;;;;4978002;28;20050;-74
2023/01/22 08:49:51;;;;;;;26.73;12.45;;;;;;;;;;4993655;28;20081;-77
2023/01/22 08:52:18;;;;;;;28.27;12.35;;;;;;;;;;4985398;28;20082;-76
2023/01/22 08:54:46;;;;;;;31.23;12.75;;;;;;;;;;4977895;28;20066;-74
2023/01/22 08:57:12;;;;;;;29.92;12.95;;;;;;;;;;4975746;28;20131;-76
2023/01/22 08:59:42;;;;;;;27.15;12.40;;;;;;;;;;4976153;28;20584;-75
2023/01/22 09:02:11;;;;;;;27.10;13.48;;;;;;;;;;4976597;28;20086;-75
2023/01/22 09:04:38;;;;;;;24.13;11.63;;;;;;;;;;4977212;28;20200;-75
2023/01/22 09:07:05;;;;;;;26.30;11.70;;;;;;;;;;4981263;28;20502;-74
2023/01/22 09:09:32;;;;;;;26.67;12.02;;;;;;;;;;4983192;28;20057;-75
2023/01/22 09:12:00;;;;;;;26.80;11.60;;;;;;;;;;4974816;28;20050;-76
2023/01/22 09:14:27;;;;;;;30.27;12.52;;;;;;;;;;4975256;28;20105;-75
2023/01/22 09:16:53;;;;;;;27.67;12.00;;;;;;;;;;4982446;28;20409;-75
2023/01/22 09:19:23;;;;;;;30.92;12.82;;;;;;;;;;4993944;28;20056;-75
2023/01/22 09:21:49;;;;;;;26.85;11.80;;;;;;;;;;4993908;28;20045;-76
2023/01/22 09:24:16;;;;;;;29.38;13.23;;;;;;;;;;4994240;28;20097;-76
2023/01/22 09:26:43;;;;;;;27.25;11.75;;;;;;;;;;4987539;28;20191;-76
2023/01/22 09:29:11;;;;;;;28.58;12.93;;;;;;;;;;4975335;28;20528;-73
2023/01/22 09:31:38;;;;;;;31.23;13.30;;;;;;;;;;4973817;28;20087;-74
2023/01/22 09:34:05;;;;;;;27.98;12.40;;;;;;;;;;4980239;28;20102;-75
2023/01/22 09:36:32;;;;;;;26.77;12.68;;;;;;;;;;4990925;28;20085;-74
2023/01/22 09:38:59;;;;;;;27.63;12.38;;;;;;;;;;4990762;28;20074;-74
2023/01/22 09:41:30;;;;;;;29.02;12.50;;;;;;;;;;4990986;28;20101;-74
2023/01/22 09:44:00;;;;;;;31.20;13.05;;;;;;;;;;4974776;28;20414;-75
2023/01/22 09:46:34;;;;;;;27.00;11.93;;;;;;;;;;4983016;28;20130;-74
2023/01/22 09:49:07;;;;;;;32.35;13.38;;;;;;;;;;4988047;28;20050;-73
2023/01/22 09:51:34;;;;;;;29.25;12.38;;;;;;;;;;4977559;28;20525;-74
2023/01/22 09:54:03;;;;;;;33.42;13.20;;;;;;;;;;4977295;28;20093;-74
2023/01/22 09:56:36;;;;;;;29.25;13.52;;;;;;;;;;4977593;28;20154;-74
2023/01/22 09:59:05;;;;;;;35.45;13.27;;;;;;;;;;4969797;28;20047;-74
2023/01/22 10:01:34;;;;;;;29.90;12.93;;;;;;;;;;4975256;28;20592;-73
2023/01/22 10:04:06;;;;;;;28.00;12.23;;;;;;;;;;4992414;28;20043;-74
2023/01/22 10:06:35;;;;;;;31.05;12.55;;;;;;;;;;4979228;28;20494;-77
2023/01/22 10:09:11;;;;;;;32.00;13.68;;;;;;;;;;4987866;28;20586;-76
2023/01/22 10:11:38;;;;;;;27.08;12.18;;;;;;;;;;4983877;28;20078;-72
2023/01/22 10:14:08;;;;;;;27.75;12.55;;;;;;;;;;4977629;28;20118;-73
2023/01/22 10:16:37;;;;;;;29.58;11.77;;;;;;;;;;4996466;28;20047;-72
2023/01/22 10:19:15;;;;;;;31.40;12.48;;;;;;;;;;4997659;28;20102;-85
2023/01/22 10:21:45;;;;;;;31.83;13.48;;;;;;;;;;4995449;28;20050;-75
2023/01/22 10:24:12;;;;;;;29.45;12.20;;;;;;;;;;4981300;28;20053;-73
2023/01/22 10:26:48;;;;;;;29.90;12.88;;;;;;;;;;4984013;28;20053;-74
2023/01/22 10:29:24;;;;;;;26.27;11.35;;;;;;;;;;4982246;28;20078;-75
2023/01/22 10:31:54;;;;;;;29.85;12.43;;;;;;;;;;4976829;28;20057;-75
2023/01/22 10:34:26;;;;;;;27.98;11.32;;;;;;;;;;4991516;28;20074;-74
2023/01/22 10:36:54;;;;;;;27.45;12.10;;;;;;;;;;4988941;28;20458;-73
2023/01/22 10:39:21;;;;;;;29.02;13.07;;;;;;;;;;4984988;28;20043;-74
2023/01/22 10:41:49;;;;;;;26.38;12.27;;;;;;;;;;4977478;28;20137;-74
2023/01/22 10:44:22;;;;;;;28.65;11.65;;;;;;;;;;4976885;28;20141;-74
2023/01/22 10:46:49;;;;;;;25.80;11.02;;;;;;;;;;4986314;28;20043;-75
2023/01/22 10:49:20;;;;;;;29.30;12.52;;;;;;;;;;4989994;28;20046;-75
2023/01/22 10:51:53;;;;;;;28.08;13.38;;;;;;;;;;4983016;28;20513;-74
2023/01/22 10:54:23;;;;;;;25.52;11.88;;;;;;;;;;4979329;28;20047;-74
2023/01/22 10:56:50;;;;;;;32.05;12.02;;;;;;;;;;4976392;28;20145;-74
2023/01/22 10:59:24;;;;;;;29.90;14.07;;;;;;;;;;4977271;28;20047;-74
2023/01/22 11:01:58;;;;;;;28.23;13.18;;;;;;;;;;4977804;28;20122;-75
2023/01/22 11:04:31;;;;;;;27.65;12.82;;;;;;;;;;4993340;28;20056;-75
2023/01/22 11:07:08;;;;;;;27.00;11.32;;;;;;;;;;4977351;28;20114;-76
2023/01/22 11:09:41;;;;;;;26.65;11.05;;;;;;;;;;4990648;28;20105;-77
2023/01/22 11:12:26;;;;;;;26.85;11.02;;;;;;;;;;5002278;28;20074;-74
2023/01/22 11:15:02;;;;;;;23.90;10.43;;;;;;;;;;4985731;28;20047;-74
2023/01/22 11:17:34;;;;;;;24.00;10.80;;;;;;;;;;4981443;28;20081;-74
2023/01/22 11:20:05;;;;;;;21.60;9.93;;;;;;;;;;4997301;28;20085;-74
2023/01/22 11:22:37;;;;;;;22.83;10.05;;;;;;;;;;4983065;28;20066;-73
2023/01/22 11:25:05;;;;;;;21.17;9.80;;;;;;;;;;4981038;28;20057;-73
2023/01/22 11:27:47;;;;;;;20.65;9.88;;;;;;;;;;4976030;28;20043;-74
2023/01/22 11:30:42;;;;;;;22.27;9.32;;;;;;;;;;4975648;28;20091;-74
2023/01/22 11:33:24;;;;;;;21.33;10.50;;;;;;;;;;4976382;28;20082;-74
2023/01/22 11:36:03;;;;;;;21.02;10.02;;;;;;;;;;4980407;28;20043;-73
2023/01/22 11:38:38;;;;;;;21.92;9.77;;;;;;;;;;4976168;28;20574;-75
2023/01/22 11:41:58;;;;;;;19.77;9.93;;;;;;;;;;4992005;28;20134;-73
2023/01/22 11:44:40;;;;;;;18.02;8.77;;;;;;;;;;4975340;28;20354;-74
2023/01/22 11:47:27;;;;;;;19.35;9.82;;;;;;;;;;4987787;28;20046;-74
2023/01/22 11:50:09;;;;;;;20.98;10.50;;;;;;;;;;4982730;28;20046;-73
2023/01/22 11:52:47;;;;;;;21.67;9.75;;;;;;;;;;4984185;28;20101;-74
2023/01/22 11:55:31;;;;;;;21.33;10.25;;;;;;;;;;4982678;28;20137;-74
2023/01/22 11:58:08;;;;;;;20.02;9.55;;;;;;;;;;4986342;28;20082;-74
2023/01/22 12:00:44;;;;;;;19.90;9.20;;;;;;;;;;4955988;29;20047;-74
2023/01/22 12:03:59;;;;;;;17.55;8.73;;;;;;;;;;4979116;28;20073;-74
2023/01/22 12:07:00;;;;;;;17.55;8.52;;;;;;;;;;4983984;28;20050;-73
2023/01/22 12:09:35;;;;;;;23.10;9.80;;;;;;;;;;4955620;28;20426;-74
2023/01/22 12:12:19;;;;;;;18.30;8.93;;;;;;;;;;4984952;28;20073;-74
2023/01/22 12:15:02;;;;;;;18.05;9.18;;;;;;;;;;4993893;28;20082;-74
2023/01/22 12:17:41;;;;;;;20.38;9.80;;;;;;;;;;4983824;28;20424;-74
2023/01/22 12:20:33;;;;;;;18.60;10.73;;;;;;;;;;4975459;28;20575;-73
2023/01/22 12:23:05;;;;;;;20.75;8.82;;;;;;;;;;4974431;28;20122;-73
2023/01/22 12:25:40;;;;;;;23.95;10.18;;;;;;;;;;4974507;28;20054;-75
2023/01/22 12:28:16;;;;;;;22.75;9.60;;;;;;;;;;4974810;28;20085;-74
2023/01/22 12:30:52;;;;;;;23.27;10.20;;;;;;;;;;4974635;28;20051;-75
2023/01/22 12:33:23;;;;;;;16.77;8.20;;;;;;;;;;4975446;28;20054;-75
2023/01/22 12:35:52;;;;;;;21.55;9.70;;;;;;;;;;4980852;28;20511;-74
2023/01/22 12:38:32;;;;;;;19.27;9.77;;;;;;;;;;4993709;28;20141;-74
2023/01/22 12:41:28;;;;;;;21.35;9.07;;;;;;;;;;4963985;28;20134;-74
2023/01/22 12:43:58;;;;;;;16.58;8.18;;;;;;;;;;4983702;28;20125;-74
2023/01/22 12:46:33;;;;;;;21.23;9.20;;;;;;;;;;4974650;28;20047;-74
2023/01/22 12:49:05;;;;;;;17.77;8.68;;;;;;;;;;4983762;28;20521;-75
2023/01/22 12:51:38;;;;;;;18.63;9.15;;;;;;;;;;4979047;28;20078;-75
2023/01/22 12:54:17;;;;;;;19.02;8.95;;;;;;;;;;4977164;28;20126;-75
2023/01/22 12:56:43;;;;;;;18.63;9.50;;;;;;;;;;4993762;28;20082;-74
2023/01/22 12:59:30;;;;;;;19.52;8.25;;;;;;;;;;4975190;28;20093;-74
2023/01/22 13:02:01;;;;;;;17.45;9.20;;;;;;;;;;4967277;28;20122;-74
2023/01/22 13:04:28;;;;;;;;;;;;;;;;;;4971518;28;20138;-73
2023/01/22 13:07:04;;;;;;;21.65;9.73;;;;;;;;;;4973803;28;20005;-73
2023/01/22 13:09:36;;;;;;;18.60;8.07;;;;;;;;;;4976073;28;20473;-74
2023/01/22 13:12:10;;;;;;;20.13;9.25;;;;;;;;;;4985170;28;20085;-74
2023/01/22 13:14:41;;;;;;;19.95;9.27;;;;;;;;;;4976535;28;20192;-74
2023/01/22 13:17:19;;;;;;;20.50;8.77;;;;;;;;;;4986191;28;20130;-74
2023/01/22 13:19:49;;;;;;;19.42;9.95;;;;;;;;;;4972300;28;20043;-73
2023/01/22 13:22:17;;;;;;;19.63;9.63;;;;;;;;;;4982160;28;20510;-74
2023/01/22 13:24:52;;;;;;;21.08;10.63;;;;;;;;;;4979311;28;20051;-74
2023/01/22 13:27:24;;;;;;;22.45;10.48;;;;;;;;;;4982332;28;20081;-74
2023/01/22 13:29:52;;;;;;;21.95;10.70;;;;;;;;;;4994409;28;20092;-74
2023/01/22 13:32:22;;;;;;;25.85;11.75;;;;;;;;;;4989316;28;20098;-73
2023/01/22 13:34:49;;;;;;;22.00;10.93;;;;;;;;;;4978453;28;20087;-73
2023/01/22 13:37:23;;;;;;;19.65;9.40;;;;;;;;;;4987844;28;20097;-73
2023/01/22 13:39:50;;;;;;;19.40;10.50;;;;;;;;;;4995085;28;20093;-74
2023/01/22 13:42:17;;;;;;;21.33;10.80;;;;;;;;;;4977712;28;20050;-73
2023/01/22 13:44:47;;;;;;;23.73;11.15;;;;;;;;;;4977629;28;20093;-74
2023/01/22 13:47:28;;;;;;;28.52;12.35;;;;;;;;;;4994231;28;20042;-74
2023/01/22 13:49:55;;;;;;;18.15;10.68;;;;;;;;;;4994424;28;20101;-74
2023/01/22 13:52:27;;;;;;;23.27;10.00;;;;;;;;;;4977436;28;20072;-77
2023/01/22 13:55:02;;;;;;;23.33;9.93;;;;;;;;;;4977324;28;20046;-74
2023/01/22 13:57:28;;;;;;;19.25;9.18;;;;;;;;;;4996580;28;20449;-74
2023/01/22 14:00:02;;;;;;;18.17;9.20;;;;;;;;;;4996231;28;20078;-75
2023/01/22 14:02:33;;;;;;;23.73;9.90;;;;;;;;;;4976997;28;20051;-74
2023/01/22 14:05:00;;;;;;;17.88;8.82;;;;;;;;;;4977464;28;20062;-74
2023/01/22 14:07:32;;;;;;;20.70;9.93;;;;;;;;;;4978279;28;20043;-74
2023/01/22 14:10:13;;;;;;;22.73;10.15;;;;;;;;;;4979021;28;20055;-73
2023/01/22 14:12:41;;;;;;;18.17;9.00;;;;;;;;;;4958132;29;20061;-73
2023/01/22 14:15:19;;;;;;;20.42;9.40;;;;;;;;;;4959210;28;20483;-73
2023/01/22 14:17:53;;;;;;;16.73;8.48;;;;;;;;;;4958755;29;20051;-72
2023/01/22 14:20:20;;;;;;;18.15;8.50;;;;;;;;;;4960348;28;20055;-73
2023/01/22 14:22:47;;;;;;;20.27;8.80;;;;;;;;;;4996289;28;20074;-72
2023/01/22 14:25:25;;;;;;;17.95;8.73;;;;;;;;;;4997180;28;20053;-74
2023/01/22 14:27:53;;;;;;;20.67;9.65;;;;;;;;;;4957412;29;20055;-74
2023/01/22 14:30:21;;;;;;;17.40;9.30;;;;;;;;;;4958018;28;20054;-74
2023/01/22 14:32:53;;;;;;;18.35;9.45;;;;;;;;;;4996259;28;20046;-74
2023/01/22 14:35:23;;;;;;;21.75;9.77;;;;;;;;;;4997271;28;20409;-75
2023/01/22 14:37:51;;;;;;;17.52;9.38;;;;;;;;;;4995198;28;20101;-74
2023/01/22 14:40:19;;;;;;;17.55;9.55;;;;;;;;;;5010018;22;20485;-75
2023/01/22 14:42:46;;;;;;;19.20;9.20;;;;;;;;;;5034420;28;20053;-78